Alpine, Idaho
Current Conditions -  °F | °C
As of 8:51 PM on Tuesday 25 Nov 2014 (Local Time) from KMYL Reporting Station
Light Rain Light Rain  
Wind Chill:   Ceiling: 2100
Heat Index:   Visibility: 5mi
Dew Point:   Wind: 0mph
Humidity: 96%   Direction: NA
Pressure: 30.21"   Gusts: NA
Location:  44.6782°N, 116.766°W
Report Text: KMYL 260351Z AUTO 00000KT 5SM -RA BR OVC021 01/01 A3021 RMK AO2 SLP252 P0004 T00110006
Loading
Personal Weather Stations






























Interactive Weather Map New forecast layout! Learn more

10-Day Weather Forecast

Advertisements
Track Severe Weather on mobile